Jay, Florida
Current Conditions -  °F | °C
As of 1:14 AM on Sunday 23 Nov 2014 (Local Time) from KNSE Reporting Station
Overcast Overcast  
Wind Chill: 62°   Ceiling: 400
Heat Index: 62°   Visibility: 10mi
Dew Point: 61°   Wind: 13mph
Humidity: 96%   Direction: 100°E
Pressure: 29.9"   Gusts: NA
Location:  30.95°N, 87.15°W
Report Text: KNSE 230714Z AUTO 10011KT 10SM OVC004 17/16 A2990 RMK AO2 T01670161 $
Loading
Personal Weather Stations






























Interactive Weather Map New forecast layout! Learn more

10-Day Weather Forecast

Advertisements
Track Severe Weather on mobile